Eloy Alfaro International Airport
SEMT : rendu visible

Aérodrome :











RETROUVEZ-NOUS SUR...

 
LOGIN :

S'inscrire | Disclaimer

   EN    FR    IT 

 









Légende :    VFR   VFR Marginal   IFR   IFR Intensif   IFR Très Intensif
Visi : 
Plafond : 
>= 8 km
>= 3000ft
5 à 8 km
1000 à 3000 ft
1500m à 5 km
500 à 1000 ft
800 à 1500m
200 à 500 ft
< 800m
< 200 ft
Symboles :   Orages  Brouillard  Fortes neiges  Fortes précipitations  Vent > 20 kt






- Altitude de l'aérodrome : 48 ft
- Code IATA : MEC


SEMT - Eloy Alfaro International

DERNIER METAR :
  • 151700Z 22008KT 9999 OVC020 24/20 Q1012 RMK A2990

METARs EXPIRÉS :
  • 151600Z 20009KT 9999 OVC020 24/21 Q1012 RMK A2991
  • 151500Z 23007KT 9999 OVC020 24/20 Q1013 RMK A2991

TAF SEMT
Valide du 15 à 18h jusqu'au 16 à 18h UTC


151610Z 1518/1618 27010KT 9999 BKN023
BECMG 1600/1601 21006KT OVC020 TX26/1520Z TN21/1610Z
FIR SEGU / Amérique du Sud



MET'MAP, la Météo Aéronautique d'un coup d'oeil ! - Copyright ORBIFLY Décembre 2007 - Disclaimer

ORBIFLY MET'MAP TEAM :

Programmation & Développement : Alexandra Zaïnal
Sur une idée originale de : Baudouin d'Aumeries
Assistance à la programmation : Marc-Olivier Méhu
Soutien technique & logistique : Manuel Goepfert

Contact : metmap@orbifly.com




SOURCES & CREDITS :

   NOAA       Earth
Advisory